createdAt,value
2023-01-10T00:01:10.682Z,98.14
2023-01-10T00:06:15.339Z,98.04
2023-01-10T00:11:38.148Z,97.90
2023-01-10T00:16:42.733Z,98.33
2023-01-10T00:21:46.967Z,97.80
2023-01-10T00:26:52.126Z,97.84
2023-01-10T00:31:57.179Z,98.30
2023-01-10T00:37:01.245Z,98.23
2023-01-10T00:42:25.289Z,98.10
2023-01-10T00:47:29.331Z,98.35
2023-01-10T00:52:33.269Z,99.09
2023-01-10T00:57:37.540Z,99.18
2023-01-10T01:02:41.742Z,99.75
2023-01-10T01:07:48.629Z,100.00
2023-01-10T01:12:53.640Z,99.93
2023-01-10T01:17:58.475Z,99.95
2023-01-10T01:23:02.439Z,99.94
2023-01-10T01:28:06.759Z,99.86
2023-01-10T01:33:10.682Z,99.71
2023-01-10T01:38:15.729Z,99.63
2023-01-10T01:43:26.093Z,99.74
2023-01-10T01:48:35.543Z,99.86
2023-01-10T01:53:44.952Z,99.63
2023-01-10T02:04:13.610Z,99.71
2023-01-10T02:09:37.700Z,99.63
2023-01-10T02:14:46.866Z,99.85
2023-01-10T02:19:58.989Z,100.00
2023-01-10T02:25:37.960Z,100.00
2023-01-10T02:31:02.165Z,100.00
2023-01-10T02:36:29.841Z,100.00
2023-01-10T02:41:47.280Z,99.99
2023-01-10T02:46:54.088Z,100.00
2023-01-10T02:52:07.501Z,99.94
2023-01-10T02:57:32.287Z,99.87
2023-01-10T03:03:02.144Z,99.97
2023-01-10T03:08:21.293Z,99.96
2023-01-10T03:13:34.673Z,99.95
2023-01-10T03:18:46.954Z,99.91
2023-01-10T03:24:00.933Z,99.98
2023-01-10T03:29:14.205Z,99.98
2023-01-10T03:34:22.349Z,100.00
2023-01-10T03:39:36.060Z,99.95
2023-01-10T03:44:56.207Z,99.98
2023-01-10T03:50:08.699Z,99.99
2023-01-10T03:55:21.029Z,100.00
2023-01-10T04:00:29.690Z,99.99
2023-01-10T04:05:37.331Z,100.00
2023-01-10T04:10:45.546Z,99.43
2023-01-10T04:15:53.514Z,98.56
2023-01-10T04:21:01.785Z,98.05
2023-01-10T04:26:09.702Z,97.56
2023-01-10T04:31:17.558Z,97.19
2023-01-10T04:36:25.982Z,96.87
2023-01-10T04:41:33.506Z,96.76
2023-01-10T04:46:42.429Z,97.03
2023-01-10T04:51:50.316Z,97.32
2023-01-10T04:56:59.402Z,97.55
2023-01-10T05:02:08.212Z,98.09
2023-01-10T05:07:16.795Z,97.92
2023-01-10T05:12:24.892Z,97.44
2023-01-10T05:17:35.598Z,96.61
2023-01-10T05:22:43.038Z,96.59
2023-01-10T05:27:50.541Z,96.75
2023-01-10T05:33:00.340Z,97.18
2023-01-10T05:38:08.329Z,96.74
2023-01-10T05:43:16.047Z,96.58
2023-01-10T05:48:26.165Z,96.97
2023-01-10T05:53:34.167Z,97.36
2023-01-10T05:58:41.523Z,98.03
2023-01-10T06:03:50.064Z,98.41
2023-01-10T06:09:00.309Z,97.17
2023-01-10T06:14:09.290Z,96.39
2023-01-10T06:19:17.609Z,96.77
2023-01-10T06:24:26.335Z,96.00
2023-01-10T06:29:34.368Z,95.70
2023-01-10T06:34:41.997Z,95.63
2023-01-10T06:39:51.531Z,95.76
2023-01-10T06:44:59.585Z,96.20
2023-01-10T06:50:10.119Z,96.72
2023-01-10T06:55:18.464Z,97.13
2023-01-10T07:00:29.776Z,96.38
2023-01-10T07:05:38.079Z,95.06
2023-01-10T07:10:45.951Z,94.47
2023-01-10T07:15:53.307Z,94.41
2023-01-10T07:21:01.465Z,94.86
2023-01-10T07:26:11.177Z,94.74
2023-01-10T07:31:19.647Z,94.90
2023-01-10T07:36:29.160Z,95.55
2023-01-10T07:41:37.377Z,96.23
2023-01-10T07:46:45.483Z,96.46
2023-01-10T07:51:54.717Z,96.79
2023-01-10T07:57:04.501Z,96.71
2023-01-10T08:02:13.218Z,96.89
2023-01-10T08:07:21.095Z,97.23
2023-01-10T08:12:29.165Z,97.77
2023-01-10T08:17:38.451Z,97.90
2023-01-10T08:22:46.863Z,98.42
2023-01-10T08:27:56.424Z,98.81
2023-01-10T08:33:06.588Z,99.00
2023-01-10T08:38:15.191Z,99.44
2023-01-10T08:43:24.971Z,99.72
2023-01-10T08:48:32.758Z,100.00
2023-01-10T08:53:42.127Z,100.00
2023-01-10T08:58:49.877Z,100.00
2023-01-10T09:03:57.651Z,100.00
2023-01-10T09:09:05.567Z,100.00
2023-01-10T09:14:13.117Z,100.00
2023-01-10T09:19:22.237Z,100.00
2023-01-10T09:24:30.543Z,100.00
2023-01-10T09:29:38.260Z,100.00
2023-01-10T09:34:46.066Z,100.00
2023-01-10T09:39:53.552Z,100.00
2023-01-10T09:45:14.526Z,100.00
2023-01-10T09:50:30.526Z,100.00
2023-01-10T09:55:40.179Z,100.00
2023-01-10T10:00:52.328Z,100.00
2023-01-10T10:06:11.613Z,100.00
2023-01-10T10:11:43.637Z,100.00
2023-01-10T10:17:08.005Z,100.00
2023-01-10T10:22:26.442Z,100.00
2023-01-10T10:27:42.628Z,100.00
2023-01-10T10:33:03.681Z,100.00
2023-01-10T10:38:19.244Z,99.97
2023-01-10T10:43:32.383Z,99.99
2023-01-10T10:48:46.436Z,99.99
2023-01-10T10:53:55.898Z,100.00
2023-01-10T10:59:05.928Z,100.00
2023-01-10T11:04:17.172Z,99.16
2023-01-10T11:09:30.402Z,98.68
2023-01-10T11:14:47.733Z,98.68
2023-01-10T11:19:59.345Z,98.23
2023-01-10T11:25:15.622Z,98.22
2023-01-10T11:30:26.403Z,97.98
2023-01-10T11:35:37.285Z,97.65
2023-01-10T11:40:58.250Z,97.63
2023-01-10T11:46:17.938Z,97.45
2023-01-10T11:51:30.891Z,97.75
2023-01-10T11:56:42.037Z,98.04
2023-01-10T12:01:56.512Z,98.28
2023-01-10T12:07:09.650Z,98.66
2023-01-10T12:12:27.052Z,99.14
2023-01-10T12:17:37.391Z,99.58
2023-01-10T12:22:49.000Z,99.64
2023-01-10T12:27:59.168Z,100.00
2023-01-10T12:33:12.649Z,100.00
2023-01-10T12:38:51.242Z,100.00
2023-01-10T12:44:15.619Z,100.00
2023-01-10T12:49:29.524Z,100.00
2023-01-10T12:54:37.184Z,100.00
2023-01-10T12:59:46.576Z,100.00
2023-01-10T13:04:58.381Z,100.00
2023-01-10T13:10:10.736Z,100.00
2023-01-10T13:15:25.878Z,100.00
2023-01-10T13:20:44.101Z,100.00
2023-01-10T13:26:01.188Z,100.00
2023-01-10T13:31:24.883Z,100.00
2023-01-10T13:36:39.825Z,100.00
2023-01-10T13:42:41.516Z,100.00
2023-01-10T13:48:25.081Z,100.00
2023-01-10T13:54:05.120Z,100.00
2023-01-10T13:59:56.517Z,100.00
2023-01-10T14:05:08.079Z,100.00
2023-01-10T14:10:25.140Z,100.00
2023-01-10T14:15:39.216Z,100.00
2023-01-10T14:20:58.134Z,100.00
2023-01-10T14:26:07.216Z,100.00
2023-01-10T14:31:25.369Z,100.00
2023-01-10T14:36:50.453Z,100.00
2023-01-10T14:42:02.869Z,100.00
2023-01-10T14:47:33.316Z,100.00
2023-01-10T14:52:44.949Z,100.00
2023-01-10T14:58:01.618Z,100.00
2023-01-10T15:03:10.167Z,100.00
2023-01-10T15:08:25.252Z,100.00
2023-01-10T15:13:36.969Z,100.00
2023-01-10T15:18:48.871Z,100.00
2023-01-10T15:23:57.454Z,100.00
2023-01-10T15:29:12.695Z,100.00
2023-01-10T15:34:23.312Z,100.00
2023-01-10T15:39:34.972Z,100.00
2023-01-10T15:44:45.375Z,100.00
2023-01-10T15:49:58.502Z,100.00
2023-01-10T15:55:36.436Z,100.00
2023-01-10T16:00:50.328Z,100.00
2023-01-10T16:06:00.542Z,100.00
2023-01-10T16:11:39.368Z,100.00
2023-01-10T16:16:47.091Z,100.00
2023-01-10T16:21:59.309Z,100.00
2023-01-10T16:27:08.917Z,100.00
2023-01-10T16:32:17.847Z,100.00
2023-01-10T16:37:26.226Z,100.00
2023-01-10T16:42:51.557Z,100.00
2023-01-10T16:47:59.510Z,100.00
2023-01-10T16:53:07.038Z,100.00
2023-01-10T16:58:15.779Z,100.00
2023-01-10T17:03:26.438Z,100.00
2023-01-10T17:08:34.616Z,100.00
2023-01-10T17:13:45.421Z,100.00
2023-01-10T17:18:52.820Z,100.00
2023-01-10T17:24:01.944Z,100.00
2023-01-10T17:29:09.252Z,100.00
2023-01-10T17:34:16.486Z,100.00
2023-01-10T17:39:26.901Z,100.00
2023-01-10T17:44:34.562Z,100.00
2023-01-10T17:49:42.663Z,100.00
2023-01-10T17:54:50.175Z,100.00
2023-01-10T17:59:57.611Z,100.00
2023-01-10T18:05:05.670Z,100.00
2023-01-10T18:10:14.050Z,100.00
2023-01-10T18:15:22.417Z,100.00
2023-01-10T18:20:31.388Z,100.00
2023-01-10T18:25:40.145Z,100.00
2023-01-10T18:30:47.648Z,100.00
2023-01-10T18:35:57.941Z,100.00
2023-01-10T18:41:06.236Z,100.00
2023-01-10T18:46:16.176Z,100.00
2023-01-10T18:51:26.186Z,100.00
2023-01-10T18:56:33.571Z,100.00
2023-01-10T19:01:41.412Z,100.00
2023-01-10T19:06:48.997Z,100.00
2023-01-10T19:11:57.610Z,100.00
2023-01-10T19:17:05.025Z,100.00
2023-01-10T19:22:12.582Z,100.00
2023-01-10T19:27:21.178Z,100.00
2023-01-10T19:32:30.031Z,100.00
2023-01-10T19:37:37.827Z,100.00
2023-01-10T19:42:45.627Z,100.00
2023-01-10T19:47:57.479Z,100.00
2023-01-10T19:53:04.751Z,100.00
2023-01-10T19:58:13.192Z,100.00
2023-01-10T20:03:20.689Z,100.00
2023-01-10T20:08:29.934Z,100.00
2023-01-10T20:13:38.869Z,100.00
2023-01-10T20:18:47.858Z,100.00
2023-01-10T20:23:56.439Z,100.00
2023-01-10T20:29:06.054Z,100.00
2023-01-10T20:34:13.356Z,100.00
2023-01-10T20:39:21.126Z,100.00
2023-01-10T20:44:32.380Z,100.00
2023-01-10T20:49:39.794Z,100.00
2023-01-10T20:54:47.239Z,100.00
2023-01-10T21:04:23.041Z,100.00
2023-01-10T21:09:31.661Z,100.00
2023-01-10T21:14:39.026Z,100.00
2023-01-10T21:19:46.767Z,100.00
2023-01-10T21:24:54.597Z,100.00
2023-01-10T21:30:03.557Z,100.00
2023-01-10T21:35:11.606Z,100.00
2023-01-10T21:40:22.244Z,100.00
2023-01-10T21:45:31.174Z,100.00
2023-01-10T21:50:39.613Z,100.00
2023-01-10T21:55:48.469Z,99.97
2023-01-10T22:01:00.487Z,99.90
2023-01-10T22:06:10.036Z,99.74
2023-01-10T22:11:17.376Z,99.60
2023-01-10T22:16:26.272Z,99.51
2023-01-10T22:21:33.822Z,99.48
2023-01-10T22:26:41.563Z,99.10
2023-01-10T22:31:49.559Z,99.54
2023-01-10T22:36:57.434Z,99.71
2023-01-10T22:51:41.023Z,99.13
2023-01-10T22:56:49.670Z,98.66
2023-01-10T23:01:58.212Z,98.68
2023-01-10T23:07:06.013Z,98.38
2023-01-10T23:12:13.857Z,98.22
2023-01-10T23:17:21.165Z,97.74
2023-01-10T23:22:29.669Z,97.85
2023-01-10T23:27:38.690Z,98.08
2023-01-10T23:32:45.960Z,98.22
2023-01-10T23:37:51.532Z,98.20
2023-01-10T23:42:59.696Z,98.38
2023-01-10T23:48:08.567Z,98.46
2023-01-10T23:53:15.948Z,98.14
2023-01-10T23:58:23.253Z,97.92
